Time;durP1;ratioP1;P1;durP2;ratioP2;P2;SDS_P1;SDS_P2;PMS_P1;PMS_P2;Temp;Humidity;BMP_temperature;BMP_pressure;BME280_temperature;BME280_humidity;BME280_pressure;Samples;Min_cycle;Max_cycle;Signal;HPM_P1;HPM_P2
2023/04/30 00:00:47;;;;;;;6.47;2.67;;;;;;;;;;5099960;28;20454;-70
2023/04/30 00:03:16;;;;;;;11.03;3.57;;;;;;;;;;5099709;28;20456;-70
2023/04/30 00:05:44;;;;;;;9.50;3.40;;;;;;;;;;5098510;28;20516;-70
2023/04/30 00:08:12;;;;;;;10.63;2.90;;;;;;;;;;5099598;28;20455;-72
2023/04/30 00:10:40;;;;;;;7.40;3.50;;;;;;;;;;5099950;28;20448;-70
2023/04/30 00:13:12;;;;;;;3.90;1.80;;;;;;;;;;5101603;28;20451;-71
2023/04/30 00:15:41;;;;;;;8.73;3.20;;;;;;;;;;5101352;28;20524;-71
2023/04/30 00:18:10;;;;;;;8.97;3.03;;;;;;;;;;5101517;28;20488;-70
2023/04/30 00:20:39;;;;;;;10.60;2.73;;;;;;;;;;5104829;28;20459;-70
2023/04/30 00:23:07;;;;;;;10.90;2.20;;;;;;;;;;5130858;28;20458;-70
2023/04/30 00:25:36;;;;;;;5.80;2.23;;;;;;;;;;5130018;28;20440;-70
2023/04/30 00:28:08;;;;;;;7.97;3.40;;;;;;;;;;5123325;28;20537;-69
2023/04/30 00:30:38;;;;;;;9.50;2.57;;;;;;;;;;5131092;27;20435;-70
2023/04/30 00:33:07;;;;;;;17.67;2.87;;;;;;;;;;5132158;27;20485;-70
2023/04/30 00:35:36;;;;;;;4.87;2.23;;;;;;;;;;5124539;27;20465;-71
2023/04/30 00:38:05;;;;;;;10.37;3.13;;;;;;;;;;5124476;28;20486;-71
2023/04/30 00:40:35;;;;;;;12.30;3.30;;;;;;;;;;5133227;27;20509;-71
2023/04/30 00:43:04;;;;;;;4.13;2.67;;;;;;;;;;5129942;27;20447;-69
2023/04/30 00:45:33;;;;;;;7.93;3.60;;;;;;;;;;5128176;27;20498;-71
2023/04/30 00:48:03;;;;;;;8.37;2.50;;;;;;;;;;5125355;28;20450;-70
2023/04/30 00:50:35;;;;;;;13.90;3.30;;;;;;;;;;5122994;28;20446;-69
2023/04/30 00:53:04;;;;;;;4.60;2.57;;;;;;;;;;5124209;28;20516;-69
2023/04/30 00:55:33;;;;;;;5.67;2.83;;;;;;;;;;5125689;28;20925;-70
2023/04/30 00:58:02;;;;;;;6.20;2.53;;;;;;;;;;5124412;28;20478;-69
2023/04/30 01:00:31;;;;;;;8.00;2.27;;;;;;;;;;5134905;27;20449;-69
2023/04/30 01:03:07;;;;;;;7.80;3.60;;;;;;;;;;5138900;27;20443;-69
2023/04/30 01:05:42;;;;;;;9.70;2.37;;;;;;;;;;5127739;27;20450;-71
2023/04/30 01:08:12;;;;;;;8.17;2.50;;;;;;;;;;5129660;27;20507;-70
2023/04/30 01:11:01;;;;;;;5.03;2.27;;;;;;;;;;5129235;27;20789;-69
2023/04/30 01:13:31;;;;;;;8.20;2.67;;;;;;;;;;5135694;27;20834;-71
2023/04/30 01:16:01;;;;;;;8.90;2.63;;;;;;;;;;5144376;27;20887;-70
2023/04/30 01:18:31;;;;;;;5.37;2.27;;;;;;;;;;5145211;27;20497;-71
2023/04/30 01:21:07;;;;;;;6.70;2.03;;;;;;;;;;5143124;27;20466;-71
2023/04/30 01:23:43;;;;;;;13.00;2.90;;;;;;;;;;5141819;27;20543;-71
2023/04/30 01:26:15;;;;;;;10.60;2.33;;;;;;;;;;5143311;27;20457;-71
2023/04/30 01:28:46;;;;;;;5.93;2.70;;;;;;;;;;5142494;27;20460;-69
2023/04/30 01:31:31;;;;;;;9.63;2.63;;;;;;;;;;5141172;27;20519;-70
2023/04/30 01:34:06;;;;;;;6.20;2.47;;;;;;;;;;5124759;27;20525;-70
2023/04/30 01:37:00;;;;;;;;;;;;;;;;;;;;;
2023/04/30 01:39:35;;;;;;;5.57;2.67;;;;;;;;;;5128112;27;20640;-70
2023/04/30 01:42:17;;;;;;;6.73;2.83;;;;;;;;;;5124072;27;20441;-71
2023/04/30 01:45:20;;;;;;;6.27;2.63;;;;;;;;;;5144321;27;20793;-70
2023/04/30 01:47:51;;;;;;;8.00;2.63;;;;;;;;;;5106652;28;20443;-70
2023/04/30 01:50:26;;;;;;;11.00;2.90;;;;;;;;;;5120280;28;20475;-70
2023/04/30 01:52:56;;;;;;;6.37;2.50;;;;;;;;;;5119984;28;20455;-71
2023/04/30 01:55:30;;;;;;;8.83;2.47;;;;;;;;;;5121977;28;20477;-70
2023/04/30 01:58:00;;;;;;;6.77;1.87;;;;;;;;;;5112938;28;20585;-70
2023/04/30 02:00:31;;;;;;;4.90;2.00;;;;;;;;;;5120229;28;20461;-70
2023/04/30 02:03:00;;;;;;;12.33;3.53;;;;;;;;;;5124075;28;20447;-69
2023/04/30 02:05:29;;;;;;;4.87;2.50;;;;;;;;;;5121148;28;20451;-70
2023/04/30 02:08:07;;;;;;;7.10;2.97;;;;;;;;;;5124203;27;20515;-69
2023/04/30 02:10:38;;;;;;;8.90;2.97;;;;;;;;;;5130099;27;20554;-71
2023/04/30 02:13:08;;;;;;;6.20;2.73;;;;;;;;;;5127423;27;20767;-69
2023/04/30 02:15:39;;;;;;;8.90;3.10;;;;;;;;;;5129363;27;20443;-71
2023/04/30 02:18:08;;;;;;;5.27;2.53;;;;;;;;;;5128207;27;20475;-70
2023/04/30 02:20:37;;;;;;;8.40;2.43;;;;;;;;;;5114758;27;20987;-70
2023/04/30 02:23:10;;;;;;;7.60;2.67;;;;;;;;;;5129215;27;20453;-70
2023/04/30 02:25:46;;;;;;;9.43;3.37;;;;;;;;;;5108460;27;20691;-70
2023/04/30 02:28:16;;;;;;;4.47;2.57;;;;;;;;;;5125244;27;20442;-69
2023/04/30 02:30:58;;;;;;;12.13;3.57;;;;;;;;;;5123485;27;20440;-70
2023/04/30 02:33:32;;;;;;;10.80;3.10;;;;;;;;;;5124052;27;20443;-70
2023/04/30 02:36:02;;;;;;;7.30;2.97;;;;;;;;;;5125833;27;20550;-70
2023/04/30 02:38:30;;;;;;;7.20;2.77;;;;;;;;;;5126866;27;20475;-70
2023/04/30 02:41:02;;;;;;;10.20;2.93;;;;;;;;;;5123254;27;21075;-70
2023/04/30 02:43:32;;;;;;;8.57;2.80;;;;;;;;;;5129019;27;20960;-70
2023/04/30 02:46:03;;;;;;;5.90;2.60;;;;;;;;;;5125279;27;20474;-70
2023/04/30 02:48:34;;;;;;;10.27;3.27;;;;;;;;;;5132245;27;20456;-71
2023/04/30 02:51:03;;;;;;;9.47;3.23;;;;;;;;;;5120100;27;20455;-71
2023/04/30 02:53:33;;;;;;;9.63;3.73;;;;;;;;;;5139321;27;20776;-69
2023/04/30 02:56:02;;;;;;;6.67;3.13;;;;;;;;;;5141464;27;20461;-70
2023/04/30 02:58:31;;;;;;;9.17;3.10;;;;;;;;;;5130669;27;20534;-70
2023/04/30 03:01:00;;;;;;;8.20;2.47;;;;;;;;;;5120267;28;20551;-70
2023/04/30 03:03:32;;;;;;;7.77;3.10;;;;;;;;;;5123843;28;20439;-69
2023/04/30 03:06:02;;;;;;;6.97;3.20;;;;;;;;;;5132587;27;20452;-69
2023/04/30 03:08:32;;;;;;;7.60;2.60;;;;;;;;;;5129763;27;20534;-70
2023/04/30 03:11:01;;;;;;;10.43;3.80;;;;;;;;;;5118694;28;20554;-70
2023/04/30 03:13:31;;;;;;;5.60;2.23;;;;;;;;;;5122875;28;20447;-71
2023/04/30 03:16:03;;;;;;;9.03;2.90;;;;;;;;;;5118752;28;20456;-70
2023/04/30 03:18:33;;;;;;;7.00;3.33;;;;;;;;;;5120783;28;20491;-71
2023/04/30 03:21:02;;;;;;;9.13;2.63;;;;;;;;;;5118346;28;20467;-71
2023/04/30 03:23:30;;;;;;;6.10;3.60;;;;;;;;;;5124296;27;20444;-71
2023/04/30 03:26:01;;;;;;;9.50;3.13;;;;;;;;;;5114599;28;20439;-71
2023/04/30 03:28:31;;;;;;;12.20;3.93;;;;;;;;;;5122008;27;20880;-70
2023/04/30 03:31:00;;;;;;;6.30;3.03;;;;;;;;;;5128794;27;20482;-71
2023/04/30 03:33:28;;;;;;;8.67;3.53;;;;;;;;;;5141508;27;20523;-71
2023/04/30 03:35:58;;;;;;;9.30;4.03;;;;;;;;;;5142462;27;20450;-71
2023/04/30 03:38:26;;;;;;;7.43;3.03;;;;;;;;;;5140670;27;20482;-70
2023/04/30 03:40:54;;;;;;;7.30;2.80;;;;;;;;;;5141614;27;20626;-70
2023/04/30 03:43:23;;;;;;;8.63;2.70;;;;;;;;;;5139270;27;20449;-70
2023/04/30 03:45:51;;;;;;;11.53;3.40;;;;;;;;;;5140643;27;20458;-71
2023/04/30 03:48:24;;;;;;;8.40;2.80;;;;;;;;;;5139004;27;20516;-70
2023/04/30 03:50:53;;;;;;;6.23;2.27;;;;;;;;;;5140577;27;20529;-71
2023/04/30 03:53:24;;;;;;;10.63;3.30;;;;;;;;;;5139203;28;20518;-70
2023/04/30 03:55:55;;;;;;;8.23;3.07;;;;;;;;;;5139432;28;20864;-71
2023/04/30 03:58:24;;;;;;;5.47;2.50;;;;;;;;;;5142176;28;20766;-70
2023/04/30 04:00:53;;;;;;;7.93;2.77;;;;;;;;;;5140596;28;20553;-70
2023/04/30 04:03:22;;;;;;;5.30;2.80;;;;;;;;;;5142248;28;20617;-70
2023/04/30 04:05:51;;;;;;;6.27;3.33;;;;;;;;;;5140059;27;20549;-70
2023/04/30 04:08:19;;;;;;;5.40;2.40;;;;;;;;;;5143328;27;20465;-69
2023/04/30 04:10:50;;;;;;;11.83;3.93;;;;;;;;;;5143894;27;20544;-71
2023/04/30 04:13:18;;;;;;;12.90;3.97;;;;;;;;;;5143317;27;20893;-71
2023/04/30 04:15:46;;;;;;;7.00;3.70;;;;;;;;;;5144953;27;20458;-71
2023/04/30 04:18:18;;;;;;;7.70;3.10;;;;;;;;;;5144395;27;20489;-70
2023/04/30 04:20:46;;;;;;;5.67;1.93;;;;;;;;;;5143348;27;20953;-71
2023/04/30 04:23:15;;;;;;;8.70;2.70;;;;;;;;;;5143919;27;20446;-71
2023/04/30 04:25:45;;;;;;;12.50;2.80;;;;;;;;;;5143671;27;20522;-69
2023/04/30 04:28:15;;;;;;;10.40;2.47;;;;;;;;;;5142260;27;20502;-70
2023/04/30 04:30:44;;;;;;;9.27;2.60;;;;;;;;;;5142033;27;20517;-70
2023/04/30 04:33:13;;;;;;;10.50;2.70;;;;;;;;;;5142938;27;20450;-70
2023/04/30 04:35:41;;;;;;;6.60;3.20;;;;;;;;;;5142280;27;20457;-71
2023/04/30 04:38:10;;;;;;;15.77;5.20;;;;;;;;;;5142260;27;20489;-71
2023/04/30 04:40:39;;;;;;;10.63;4.63;;;;;;;;;;5141104;27;20470;-70
2023/04/30 04:43:07;;;;;;;10.10;3.63;;;;;;;;;;5143641;27;20800;-71
2023/04/30 04:45:39;;;;;;;7.60;3.77;;;;;;;;;;5140205;27;21157;-71
2023/04/30 04:48:07;;;;;;;4.17;2.57;;;;;;;;;;5144546;27;20465;-71
2023/04/30 04:50:36;;;;;;;9.60;3.27;;;;;;;;;;5142408;27;20468;-71
2023/04/30 04:53:04;;;;;;;5.90;3.37;;;;;;;;;;5144498;27;20697;-71
2023/04/30 04:55:33;;;;;;;6.63;3.10;;;;;;;;;;5142230;27;20465;-70
2023/04/30 04:58:01;;;;;;;5.70;2.70;;;;;;;;;;5143067;27;20515;-71
2023/04/30 05:00:30;;;;;;;7.90;3.73;;;;;;;;;;5142408;27;20518;-71
2023/04/30 05:03:00;;;;;;;6.70;2.60;;;;;;;;;;5142874;27;20458;-70
2023/04/30 05:05:28;;;;;;;6.73;3.47;;;;;;;;;;5142127;27;20724;-71
2023/04/30 05:08:00;;;;;;;8.23;3.80;;;;;;;;;;5139230;27;20941;-71
2023/04/30 05:10:31;;;;;;;11.83;4.80;;;;;;;;;;5142044;27;20441;-71
2023/04/30 05:12:59;;;;;;;7.77;3.00;;;;;;;;;;5140637;27;20468;-70
2023/04/30 05:15:29;;;;;;;6.13;3.13;;;;;;;;;;5141084;27;20458;-70
2023/04/30 05:17:59;;;;;;;10.87;3.43;;;;;;;;;;5140980;27;21031;-69
2023/04/30 05:20:28;;;;;;;4.73;2.90;;;;;;;;;;5143033;27;20446;-71
2023/04/30 05:22:56;;;;;;;5.00;2.63;;;;;;;;;;5143222;27;20453;-70
2023/04/30 05:25:25;;;;;;;6.43;2.77;;;;;;;;;;5142983;27;20510;-70
2023/04/30 05:27:53;;;;;;;9.33;3.40;;;;;;;;;;5141399;27;20545;-70
2023/04/30 05:30:22;;;;;;;4.30;2.53;;;;;;;;;;5142702;27;20938;-71
2023/04/30 05:32:51;;;;;;;5.80;2.60;;;;;;;;;;5141468;27;20465;-69
2023/04/30 05:35:23;;;;;;;7.60;2.80;;;;;;;;;;5141484;27;20458;-71
2023/04/30 05:37:58;;;;;;;9.23;2.93;;;;;;;;;;5140631;27;20473;-71
2023/04/30 05:40:29;;;;;;;9.30;2.70;;;;;;;;;;5141340;27;20481;-71
2023/04/30 05:42:57;;;;;;;7.87;2.77;;;;;;;;;;5143676;27;20688;-71
2023/04/30 05:45:26;;;;;;;5.50;3.00;;;;;;;;;;5140998;27;20896;-71
2023/04/30 05:47:55;;;;;;;7.50;2.33;;;;;;;;;;5141593;27;20464;-69
2023/04/30 05:50:25;;;;;;;12.13;2.80;;;;;;;;;;5142629;27;20540;-70
2023/04/30 05:52:57;;;;;;;9.53;4.10;;;;;;;;;;5142339;27;20466;-70
2023/04/30 05:55:25;;;;;;;6.63;3.10;;;;;;;;;;5142110;27;20446;-69
2023/04/30 05:57:54;;;;;;;4.80;2.30;;;;;;;;;;5141312;27;20799;-72
2023/04/30 06:00:23;;;;;;;5.33;2.77;;;;;;;;;;5141259;27;20490;-72
2023/04/30 06:02:51;;;;;;;5.80;2.87;;;;;;;;;;5141474;27;20450;-71
2023/04/30 06:05:20;;;;;;;8.13;2.70;;;;;;;;;;5140419;27;20533;-71
2023/04/30 06:07:50;;;;;;;7.53;2.70;;;;;;;;;;5140471;27;20742;-70
2023/04/30 06:10:20;;;;;;;6.77;2.63;;;;;;;;;;5141725;27;20442;-69
2023/04/30 06:12:52;;;;;;;5.20;2.40;;;;;;;;;;5131778;27;20470;-71
2023/04/30 06:15:21;;;;;;;7.30;2.83;;;;;;;;;;5119781;28;20529;-70
2023/04/30 06:17:50;;;;;;;5.93;2.10;;;;;;;;;;5118563;28;20468;-71
2023/04/30 06:20:19;;;;;;;5.90;2.60;;;;;;;;;;5111692;28;20493;-71
2023/04/30 06:22:49;;;;;;;8.83;2.60;;;;;;;;;;5110156;28;20464;-72
2023/04/30 06:25:21;;;;;;;16.03;3.03;;;;;;;;;;5098643;28;20523;-70
2023/04/30 06:27:53;;;;;;;9.37;2.63;;;;;;;;;;5099515;28;20464;-69
2023/04/30 06:30:21;;;;;;;6.50;2.03;;;;;;;;;;5099406;28;20862;-71
2023/04/30 06:32:50;;;;;;;6.30;2.73;;;;;;;;;;5097581;28;20460;-70
2023/04/30 06:35:18;;;;;;;10.50;2.43;;;;;;;;;;5097590;28;20466;-70
2023/04/30 06:37:46;;;;;;;7.17;2.97;;;;;;;;;;5098305;28;20463;-70
2023/04/30 06:40:20;;;;;;;7.50;2.43;;;;;;;;;;5098695;28;20491;-70
2023/04/30 06:42:51;;;;;;;9.17;2.80;;;;;;;;;;5100507;28;20492;-71
2023/04/30 06:45:20;;;;;;;7.60;2.10;;;;;;;;;;5099793;28;21026;-70
2023/04/30 06:47:48;;;;;;;7.93;2.27;;;;;;;;;;5100975;28;20460;-70
2023/04/30 06:50:16;;;;;;;5.10;2.53;;;;;;;;;;5099311;28;20456;-71
2023/04/30 06:52:45;;;;;;;4.77;3.03;;;;;;;;;;5100242;28;20465;-70
2023/04/30 06:55:14;;;;;;;10.07;3.50;;;;;;;;;;5100261;28;20452;-70
2023/04/30 06:57:42;;;;;;;4.83;2.30;;;;;;;;;;5098964;28;20452;-70
2023/04/30 07:00:15;;;;;;;7.80;2.27;;;;;;;;;;5100095;28;20756;-70
2023/04/30 07:02:46;;;;;;;9.30;1.80;;;;;;;;;;5090966;28;20526;-72
2023/04/30 07:05:17;;;;;;;7.50;2.20;;;;;;;;;;5099594;28;20883;-70
2023/04/30 07:07:46;;;;;;;9.60;2.20;;;;;;;;;;5099673;28;20799;-70
2023/04/30 07:10:14;;;;;;;13.30;2.20;;;;;;;;;;5101651;28;20528;-69
2023/04/30 07:12:44;;;;;;;8.23;2.20;;;;;;;;;;5099074;28;20734;-70
2023/04/30 07:15:14;;;;;;;7.53;2.20;;;;;;;;;;5099235;28;20455;-71
2023/04/30 07:17:43;;;;;;;11.40;2.90;;;;;;;;;;5097207;28;20460;-71
2023/04/30 07:20:15;;;;;;;7.90;4.17;;;;;;;;;;5096321;28;20602;-70
2023/04/30 07:22:47;;;;;;;9.70;2.20;;;;;;;;;;5095949;28;20589;-70
2023/04/30 07:25:16;;;;;;;6.67;3.80;;;;;;;;;;5112167;28;20851;-70
2023/04/30 07:27:44;;;;;;;5.80;2.07;;;;;;;;;;5116910;28;20897;-70
2023/04/30 07:30:15;;;;;;;4.20;2.20;;;;;;;;;;5116371;28;20515;-70
2023/04/30 07:32:43;;;;;;;5.63;1.90;;;;;;;;;;5117106;28;20988;-70
2023/04/30 07:35:13;;;;;;;7.83;3.17;;;;;;;;;;5114810;28;20926;-71
2023/04/30 07:37:43;;;;;;;8.60;2.80;;;;;;;;;;5116746;28;20748;-71
2023/04/30 07:40:14;;;;;;;18.17;3.07;;;;;;;;;;5115241;28;20518;-71
2023/04/30 07:42:43;;;;;;;7.37;2.80;;;;;;;;;;5115035;28;20459;-70
2023/04/30 07:45:16;;;;;;;4.10;2.60;;;;;;;;;;5116608;28;20563;-70
2023/04/30 07:48:10;;;;;;;8.77;3.60;;;;;;;;;;5115712;28;20466;-70
2023/04/30 07:50:39;;;;;;;6.03;2.20;;;;;;;;;;5117449;28;20460;-70
2023/04/30 07:53:11;;;;;;;7.07;2.87;;;;;;;;;;5116455;28;20554;-70
2023/04/30 07:55:40;;;;;;;11.93;3.10;;;;;;;;;;5116182;28;20520;-70
2023/04/30 07:58:10;;;;;;;8.20;2.50;;;;;;;;;;5118071;28;20474;-70
2023/04/30 08:00:42;;;;;;;3.93;2.20;;;;;;;;;;5115236;28;20792;-70
2023/04/30 08:03:17;;;;;;;7.20;3.27;;;;;;;;;;5117130;28;20793;-70
2023/04/30 08:05:49;;;;;;;6.97;2.73;;;;;;;;;;5095015;28;20766;-71
2023/04/30 08:08:19;;;;;;;5.87;2.60;;;;;;;;;;5095264;28;20551;-70
2023/04/30 08:10:49;;;;;;;7.27;3.03;;;;;;;;;;5094553;28;20470;-70
2023/04/30 08:13:19;;;;;;;8.30;2.93;;;;;;;;;;5094352;28;20451;-70
2023/04/30 08:15:52;;;;;;;5.60;2.67;;;;;;;;;;5092209;28;20517;-71
2023/04/30 08:18:26;;;;;;;4.57;2.20;;;;;;;;;;5094510;28;20546;-69
2023/04/30 08:20:56;;;;;;;5.80;3.10;;;;;;;;;;5123404;28;20927;-71
2023/04/30 08:23:24;;;;;;;8.47;3.13;;;;;;;;;;5137761;28;20839;-70
2023/04/30 08:25:53;;;;;;;7.47;2.47;;;;;;;;;;5135759;28;20451;-70
2023/04/30 08:28:21;;;;;;;7.67;2.60;;;;;;;;;;5136148;28;20450;-70
2023/04/30 08:30:53;;;;;;;6.50;2.90;;;;;;;;;;5139149;28;21062;-70
2023/04/30 08:33:21;;;;;;;6.50;2.50;;;;;;;;;;5134424;28;20503;-70
2023/04/30 08:35:50;;;;;;;4.97;2.30;;;;;;;;;;5097482;28;20448;-70
2023/04/30 08:38:18;;;;;;;6.83;2.90;;;;;;;;;;5096896;28;21244;-70
2023/04/30 08:40:50;;;;;;;7.33;3.40;;;;;;;;;;5113520;28;20551;-71
2023/04/30 08:43:19;;;;;;;5.70;2.90;;;;;;;;;;5116415;28;20462;-69
2023/04/30 08:45:49;;;;;;;5.97;2.40;;;;;;;;;;5115990;28;20454;-70
2023/04/30 08:48:22;;;;;;;6.70;2.40;;;;;;;;;;5115869;28;20549;-70
2023/04/30 08:50:51;;;;;;;5.27;2.83;;;;;;;;;;5116070;28;20527;-70
2023/04/30 08:53:21;;;;;;;7.07;3.03;;;;;;;;;;5119051;28;20726;-70
2023/04/30 08:55:50;;;;;;;9.23;3.33;;;;;;;;;;5118841;28;20455;-71
2023/04/30 08:58:18;;;;;;;11.20;3.70;;;;;;;;;;5118335;28;20465;-71
2023/04/30 09:00:49;;;;;;;5.20;2.70;;;;;;;;;;5119297;28;20486;-71
2023/04/30 09:03:17;;;;;;;10.77;3.30;;;;;;;;;;5115616;28;20531;-70
2023/04/30 09:05:49;;;;;;;7.67;3.00;;;;;;;;;;5107973;28;20464;-71
2023/04/30 09:08:19;;;;;;;5.70;2.30;;;;;;;;;;5119686;28;20455;-71
2023/04/30 09:10:47;;;;;;;8.43;2.43;;;;;;;;;;5126395;27;20446;-69
2023/04/30 09:13:16;;;;;;;7.73;2.97;;;;;;;;;;5125313;27;20459;-71
2023/04/30 09:16:00;;;;;;;6.33;3.07;;;;;;;;;;5132817;27;20555;-71
2023/04/30 09:18:29;;;;;;;7.07;3.33;;;;;;;;;;5132184;27;21032;-70
2023/04/30 09:21:00;;;;;;;5.73;2.60;;;;;;;;;;5137249;27;20762;-71
2023/04/30 09:23:30;;;;;;;7.07;2.73;;;;;;;;;;5137841;27;21075;-71
2023/04/30 09:25:59;;;;;;;5.37;3.47;;;;;;;;;;5135963;27;20461;-72
2023/04/30 09:28:28;;;;;;;6.33;2.83;;;;;;;;;;5135261;27;20454;-71
2023/04/30 09:30:58;;;;;;;8.50;2.93;;;;;;;;;;5133601;27;20437;-70
2023/04/30 09:33:30;;;;;;;5.70;2.67;;;;;;;;;;5118405;27;20520;-70
2023/04/30 09:36:10;;;;;;;8.63;3.10;;;;;;;;;;5118062;27;20466;-71
2023/04/30 09:38:39;;;;;;;8.77;3.93;;;;;;;;;;5106506;28;20486;-69
2023/04/30 09:41:27;;;;;;;10.37;3.43;;;;;;;;;;5110038;28;20563;-69
2023/04/30 09:44:02;;;;;;;8.37;3.47;;;;;;;;;;5104838;28;20476;-71
2023/04/30 09:46:40;;;;;;;5.00;2.23;;;;;;;;;;5121501;27;20446;-71
2023/04/30 09:49:10;;;;;;;4.13;2.20;;;;;;;;;;5119724;27;20443;-71
2023/04/30 09:51:56;;;;;;;11.23;3.07;;;;;;;;;;5123948;27;20507;-70
2023/04/30 09:54:29;;;;;;;9.10;2.70;;;;;;;;;;5114903;28;20744;-71
2023/04/30 09:56:59;;;;;;;8.80;2.50;;;;;;;;;;5116038;28;20754;-70
2023/04/30 09:59:30;;;;;;;5.63;2.53;;;;;;;;;;5116501;28;20458;-70
2023/04/30 10:02:00;;;;;;;7.77;3.00;;;;;;;;;;5117777;28;20546;-70
2023/04/30 10:04:31;;;;;;;7.30;3.17;;;;;;;;;;5118380;28;20443;-70
2023/04/30 10:07:02;;;;;;;4.60;2.43;;;;;;;;;;5118144;28;20959;-69
2023/04/30 10:09:36;;;;;;;9.33;3.33;;;;;;;;;;5115777;28;20467;-70
2023/04/30 10:12:14;;;;;;;11.33;3.40;;;;;;;;;;5113336;28;20909;-71
2023/04/30 10:14:46;;;;;;;6.30;2.43;;;;;;;;;;5114996;28;20485;-71
2023/04/30 10:17:19;;;;;;;5.33;1.97;;;;;;;;;;5114174;28;20465;-71
2023/04/30 10:19:49;;;;;;;7.97;2.73;;;;;;;;;;5116185;28;20894;-70
2023/04/30 10:22:23;;;;;;;6.30;3.40;;;;;;;;;;5116313;28;20444;-71
2023/04/30 10:24:52;;;;;;;5.07;2.40;;;;;;;;;;5113953;28;20455;-71
2023/04/30 10:27:21;;;;;;;5.33;2.17;;;;;;;;;;5097227;28;20799;-70
2023/04/30 10:29:54;;;;;;;8.17;2.90;;;;;;;;;;5104369;28;20447;-71
2023/04/30 10:32:23;;;;;;;7.83;2.50;;;;;;;;;;5116485;28;20890;-70
2023/04/30 10:34:54;;;;;;;7.57;2.50;;;;;;;;;;5127855;27;20466;-70
2023/04/30 10:37:29;;;;;;;6.00;2.87;;;;;;;;;;5135237;27;21067;-69
2023/04/30 10:39:57;;;;;;;6.83;2.50;;;;;;;;;;5135547;27;20455;-71
2023/04/30 10:42:26;;;;;;;8.50;3.20;;;;;;;;;;5133638;27;20530;-70
2023/04/30 10:44:55;;;;;;;10.37;3.60;;;;;;;;;;5133968;27;20526;-71
2023/04/30 10:47:30;;;;;;;7.43;3.10;;;;;;;;;;5133746;27;20468;-71
2023/04/30 10:50:09;;;;;;;7.90;2.70;;;;;;;;;;5135401;27;20457;-70
2023/04/30 10:52:39;;;;;;;8.77;3.20;;;;;;;;;;5134639;27;20518;-71
2023/04/30 10:55:09;;;;;;;12.50;3.23;;;;;;;;;;5132816;27;20822;-69
2023/04/30 10:57:54;;;;;;;7.00;2.80;;;;;;;;;;5133412;27;20681;-69
2023/04/30 11:00:26;;;;;;;6.60;2.30;;;;;;;;;;5129894;27;20522;-69
2023/04/30 11:02:59;;;;;;;6.90;2.83;;;;;;;;;;5121201;27;20529;-71
2023/04/30 11:05:42;;;;;;;9.50;3.03;;;;;;;;;;5110294;28;20889;-70
2023/04/30 11:08:14;;;;;;;6.40;2.33;;;;;;;;;;5111993;28;20664;-70
2023/04/30 11:10:57;;;;;;;6.33;2.77;;;;;;;;;;5110889;28;20855;-70
2023/04/30 11:13:27;;;;;;;6.07;2.80;;;;;;;;;;5113900;28;20443;-70
2023/04/30 11:15:56;;;;;;;5.63;2.83;;;;;;;;;;5111486;28;20528;-70
2023/04/30 11:18:30;;;;;;;6.80;3.10;;;;;;;;;;5112675;28;20574;-70
2023/04/30 11:20:59;;;;;;;7.30;2.50;;;;;;;;;;5106281;28;20510;-71
2023/04/30 11:23:35;;;;;;;8.33;2.83;;;;;;;;;;5114514;28;20549;-70
2023/04/30 11:26:04;;;;;;;8.40;2.57;;;;;;;;;;5113738;28;20476;-70
2023/04/30 11:28:35;;;;;;;8.67;3.00;;;;;;;;;;5113818;28;20826;-71
2023/04/30 11:31:03;;;;;;;6.70;2.53;;;;;;;;;;5113806;28;21076;-70
2023/04/30 11:33:33;;;;;;;8.50;2.50;;;;;;;;;;5111567;28;20465;-71
2023/04/30 11:36:04;;;;;;;7.30;2.77;;;;;;;;;;5107882;28;20775;-71
2023/04/30 11:38:38;;;;;;;11.57;2.53;;;;;;;;;;5108506;28;20706;-69
2023/04/30 11:41:07;;;;;;;10.90;3.07;;;;;;;;;;5107556;28;20487;-70
2023/04/30 11:43:35;;;;;;;5.47;3.00;;;;;;;;;;5110004;28;20854;-72
2023/04/30 11:46:06;;;;;;;6.17;2.77;;;;;;;;;;5110678;28;20455;-70
2023/04/30 11:48:37;;;;;;;7.00;3.47;;;;;;;;;;5114305;28;21036;-70
2023/04/30 11:51:15;;;;;;;5.90;2.30;;;;;;;;;;5110690;28;20496;-71
2023/04/30 11:53:48;;;;;;;8.17;2.30;;;;;;;;;;5114115;28;20641;-71
2023/04/30 11:56:20;;;;;;;4.80;2.07;;;;;;;;;;5112608;28;20859;-72
2023/04/30 11:58:54;;;;;;;3.50;1.87;;;;;;;;;;5105805;28;20458;-71
2023/04/30 12:01:46;;;;;;;7.67;2.83;;;;;;;;;;5114531;28;20581;-71
2023/04/30 12:04:15;;;;;;;6.23;2.30;;;;;;;;;;5112524;28;20465;-70
2023/04/30 12:06:44;;;;;;;9.97;2.83;;;;;;;;;;5112450;28;20466;-69
2023/04/30 12:09:17;;;;;;;9.03;2.37;;;;;;;;;;5112664;28;20463;-71
2023/04/30 12:11:46;;;;;;;7.93;3.17;;;;;;;;;;5113095;28;20462;-71
2023/04/30 12:14:16;;;;;;;5.40;2.67;;;;;;;;;;5110084;28;20732;-71
2023/04/30 12:16:47;;;;;;;5.50;2.63;;;;;;;;;;5115408;28;20475;-70
2023/04/30 12:19:16;;;;;;;6.63;2.53;;;;;;;;;;5112920;28;20485;-71
2023/04/30 12:21:46;;;;;;;5.50;2.10;;;;;;;;;;5112451;28;20723;-70
2023/04/30 12:24:22;;;;;;;6.70;2.40;;;;;;;;;;5115853;28;20498;-71
2023/04/30 12:26:54;;;;;;;6.43;2.27;;;;;;;;;;5099079;28;20454;-72
2023/04/30 12:29:27;;;;;;;13.60;3.47;;;;;;;;;;5116760;28;20534;-71
2023/04/30 12:31:56;;;;;;;6.33;2.40;;;;;;;;;;5115918;28;20455;-72
2023/04/30 12:34:28;;;;;;;12.20;4.73;;;;;;;;;;5121310;28;20458;-72
2023/04/30 12:36:59;;;;;;;8.87;3.10;;;;;;;;;;5120767;28;20512;-73
2023/04/30 12:39:34;;;;;;;6.40;2.30;;;;;;;;;;5116129;28;20443;-73
2023/04/30 12:42:03;;;;;;;6.97;2.33;;;;;;;;;;5114172;28;20474;-73
2023/04/30 12:44:32;;;;;;;6.90;2.80;;;;;;;;;;5115951;28;20454;-72
2023/04/30 12:47:00;;;;;;;6.53;2.60;;;;;;;;;;5115643;28;20443;-70
2023/04/30 12:49:33;;;;;;;10.00;2.87;;;;;;;;;;5116713;28;20451;-71
2023/04/30 12:52:10;;;;;;;8.13;3.07;;;;;;;;;;5119581;28;20459;-73
2023/04/30 12:54:45;;;;;;;6.17;2.30;;;;;;;;;;5117169;28;20521;-71
2023/04/30 12:57:14;;;;;;;6.93;2.07;;;;;;;;;;5117203;28;20455;-71
2023/04/30 12:59:59;;;;;;;5.67;2.30;;;;;;;;;;5111218;28;20917;-70
2023/04/30 13:02:30;;;;;;;5.70;2.40;;;;;;;;;;5118328;28;20473;-70
2023/04/30 13:04:59;;;;;;;6.73;3.83;;;;;;;;;;5116663;28;20553;-71
2023/04/30 13:07:28;;;;;;;6.60;2.00;;;;;;;;;;5110848;28;20554;-69
2023/04/30 13:09:58;;;;;;;6.90;3.37;;;;;;;;;;5112767;28;20451;-70
2023/04/30 13:12:27;;;;;;;5.13;2.50;;;;;;;;;;5112070;28;20445;-70
2023/04/30 13:14:56;;;;;;;4.03;2.70;;;;;;;;;;5110133;28;20532;-70
2023/04/30 13:17:29;;;;;;;5.33;2.33;;;;;;;;;;5099914;28;20544;-73
2023/04/30 13:20:05;;;;;;;9.50;3.00;;;;;;;;;;5103504;28;20455;-71
2023/04/30 13:22:34;;;;;;;8.47;2.63;;;;;;;;;;5111155;28;20483;-72
2023/04/30 13:25:04;;;;;;;8.43;3.57;;;;;;;;;;5110591;28;20443;-72
2023/04/30 13:27:39;;;;;;;4.30;2.43;;;;;;;;;;5107177;27;20554;-73
2023/04/30 13:30:10;;;;;;;3.60;1.93;;;;;;;;;;5112537;28;20462;-71
2023/04/30 13:32:40;;;;;;;4.60;1.93;;;;;;;;;;5114664;28;20443;-71
2023/04/30 13:35:10;;;;;;;5.20;2.27;;;;;;;;;;5113093;28;20451;-70
2023/04/30 13:37:39;;;;;;;4.93;3.00;;;;;;;;;;5111101;28;20935;-72
2023/04/30 13:40:10;;;;;;;4.17;2.67;;;;;;;;;;5113084;28;20565;-72
2023/04/30 13:42:39;;;;;;;10.57;2.70;;;;;;;;;;5112287;28;20479;-70
2023/04/30 13:45:08;;;;;;;6.17;2.97;;;;;;;;;;5102145;28;20463;-70
2023/04/30 13:47:37;;;;;;;6.20;2.50;;;;;;;;;;5105546;28;20453;-71
2023/04/30 13:50:13;;;;;;;5.70;2.73;;;;;;;;;;5093143;28;20445;-71
2023/04/30 13:52:45;;;;;;;6.77;2.90;;;;;;;;;;5096717;28;20444;-73
2023/04/30 13:55:16;;;;;;;9.83;2.17;;;;;;;;;;5095196;28;21084;-70
2023/04/30 13:57:46;;;;;;;7.63;2.90;;;;;;;;;;5095218;28;20653;-70
2023/04/30 14:00:17;;;;;;;4.20;2.03;;;;;;;;;;5101911;28;20826;-71
2023/04/30 14:02:45;;;;;;;5.90;2.50;;;;;;;;;;5116557;28;20521;-70
2023/04/30 14:05:14;;;;;;;5.50;2.40;;;;;;;;;;5114543;28;20454;-72
2023/04/30 14:07:44;;;;;;;5.53;2.63;;;;;;;;;;5112695;28;20465;-72
2023/04/30 14:10:13;;;;;;;5.10;2.43;;;;;;;;;;5107009;28;20623;-72
2023/04/30 14:12:48;;;;;;;6.40;2.27;;;;;;;;;;5093424;28;20455;-72
2023/04/30 14:15:18;;;;;;;4.50;2.23;;;;;;;;;;5095360;28;20882;-71
2023/04/30 14:17:47;;;;;;;8.23;2.23;;;;;;;;;;5110200;28;20470;-72
2023/04/30 14:20:18;;;;;;;8.77;2.87;;;;;;;;;;5116042;28;20462;-72
2023/04/30 14:22:47;;;;;;;4.73;2.27;;;;;;;;;;5115410;28;20570;-72
2023/04/30 14:25:16;;;;;;;6.00;1.93;;;;;;;;;;5099968;28;20507;-72
2023/04/30 14:27:46;;;;;;;3.50;2.20;;;;;;;;;;5096235;28;20566;-72
2023/04/30 14:30:16;;;;;;;5.93;2.60;;;;;;;;;;5112263;28;20439;-71
2023/04/30 14:32:44;;;;;;;6.40;2.57;;;;;;;;;;5111170;28;20435;-72
2023/04/30 14:35:14;;;;;;;4.80;2.03;;;;;;;;;;5114342;28;20543;-72
2023/04/30 14:37:42;;;;;;;4.83;2.70;;;;;;;;;;5111002;28;20781;-71
2023/04/30 14:40:13;;;;;;;9.30;1.80;;;;;;;;;;5111023;28;20451;-71
2023/04/30 14:42:43;;;;;;;7.10;2.97;;;;;;;;;;5110235;28;20876;-71
2023/04/30 14:45:14;;;;;;;6.27;2.40;;;;;;;;;;5112905;28;20463;-73
2023/04/30 14:47:44;;;;;;;4.00;2.10;;;;;;;;;;5114181;28;20998;-72
2023/04/30 14:50:14;;;;;;;7.97;2.23;;;;;;;;;;5113289;28;20865;-72
2023/04/30 14:52:43;;;;;;;6.07;2.00;;;;;;;;;;5116659;28;20447;-72
2023/04/30 14:55:14;;;;;;;4.50;2.23;;;;;;;;;;5116204;28;20444;-71
2023/04/30 14:57:43;;;;;;;5.67;1.93;;;;;;;;;;5113669;28;20508;-72
2023/04/30 15:00:14;;;;;;;4.97;2.47;;;;;;;;;;5110450;28;20916;-71
2023/04/30 15:02:48;;;;;;;5.50;2.37;;;;;;;;;;5118446;27;20481;-71
2023/04/30 15:05:22;;;;;;;7.33;2.40;;;;;;;;;;5121996;27;20439;-71